Time;durP1;ratioP1;P1;durP2;ratioP2;P2;SDS_P1;SDS_P2;PMS_P1;PMS_P2;Temp;Humidity;BMP_temperature;BMP_pressure;BME280_temperature;BME280_humidity;BME280_pressure;Samples;Min_cycle;Max_cycle;Signal;HPM_P1;HPM_P2
2022/04/20 00:00:20;;;;;;;0.70;0.52;;;;;;;10.28;77.00;101220.91;5044406;28;20036;-71
2022/04/20 00:02:46;;;;;;;1.52;0.90;;;;;;;10.32;77.22;101217.19;5030106;28;20087;-70
2022/04/20 00:05:12;;;;;;;0.38;0.35;;;;;;;10.24;76.93;101215.41;5047262;28;20107;-71
2022/04/20 00:07:38;;;;;;;2.22;0.82;;;;;;;10.21;77.49;101213.41;5048506;28;20553;-71
2022/04/20 00:10:04;;;;;;;3.22;1.38;;;;;;;10.16;78.27;101205.56;5052479;28;20037;-70
2022/04/20 00:12:30;;;;;;;1.10;0.90;;;;;;;10.14;78.57;101212.41;5034967;28;20390;-71
2022/04/20 00:14:55;;;;;;;1.95;0.95;;;;;;;10.15;78.52;101209.38;5044158;28;20033;-71
2022/04/20 00:17:21;;;;;;;2.92;1.00;;;;;;;10.27;77.95;101222.03;5045720;28;20102;-71
2022/04/20 00:19:46;;;;;;;2.55;1.45;;;;;;;10.19;78.51;101204.88;5041467;28;20029;-70
2022/04/20 00:22:11;;;;;;;5.65;1.17;;;;;;;10.15;78.77;101225.50;5039695;28;20076;-71
2022/04/20 00:24:37;;;;;;;2.47;1.23;;;;;;;10.20;78.35;101219.13;5032090;28;20850;-71
2022/04/20 00:27:03;;;;;;;0.80;0.68;;;;;;;10.03;79.37;101222.78;5049026;28;20037;-71
2022/04/20 00:29:28;;;;;;;1.08;0.90;;;;;;;9.96;79.87;101217.19;5051115;28;20033;-71
2022/04/20 00:31:54;;;;;;;2.30;1.00;;;;;;;9.90;80.69;101213.94;5023718;28;20457;-71
2022/04/20 00:34:19;;;;;;;3.28;1.20;;;;;;;9.89;80.88;101214.28;5042241;28;20434;-71
2022/04/20 00:36:45;;;;;;;2.13;1.40;;;;;;;9.87;80.87;101208.47;5048888;28;20041;-71
2022/04/20 00:39:10;;;;;;;1.67;0.90;;;;;;;9.79;81.12;101212.78;5033534;28;20036;-71
2022/04/20 00:41:36;;;;;;;2.03;1.13;;;;;;;9.90;80.93;101215.84;5039401;28;20129;-71
2022/04/20 00:44:02;;;;;;;1.90;1.17;;;;;;;9.97;80.86;101213.38;5041980;28;20029;-71
2022/04/20 00:46:28;;;;;;;1.10;0.80;;;;;;;9.95;81.16;101223.69;5029643;28;20029;-70
2022/04/20 00:48:55;;;;;;;1.30;0.60;;;;;;;9.95;80.79;101215.59;5049262;28;20095;-71
2022/04/20 00:51:21;;;;;;;2.58;1.00;;;;;;;9.96;80.79;101214.50;5050386;28;20370;-71
2022/04/20 00:53:49;;;;;;;1.95;1.10;;;;;;;10.01;80.62;101223.13;5033522;28;20048;-71
2022/04/20 00:56:16;;;;;;;3.25;1.67;;;;;;;9.95;80.84;101219.09;5028343;28;20095;-71
2022/04/20 00:58:42;;;;;;;4.07;1.08;;;;;;;9.95;80.96;101221.78;5029054;28;20033;-70
2022/04/20 01:01:09;;;;;;;1.17;0.98;;;;;;;9.78;81.35;101223.88;5030299;28;20029;-71
2022/04/20 01:03:35;;;;;;;2.83;1.05;;;;;;;9.76;81.89;101229.63;5033801;28;20036;-71
2022/04/20 01:06:39;;;;;;;4.65;1.58;;;;;;;9.75;81.78;101222.69;5020628;28;20681;-71
2022/04/20 01:09:22;;;;;;;1.30;1.10;;;;;;;9.72;82.03;101217.94;5019621;28;20120;-70
2022/04/20 01:12:07;;;;;;;5.50;1.45;;;;;;;9.65;82.53;101217.72;5032337;28;20051;-71
2022/04/20 01:14:44;;;;;;;3.13;1.38;;;;;;;9.71;82.62;101218.28;5011422;28;20032;-70
2022/04/20 01:17:32;;;;;;;3.53;1.75;;;;;;;9.73;82.21;101214.16;5050181;28;20568;-71
2022/04/20 01:20:15;;;;;;;2.55;1.50;;;;;;;9.67;82.60;101210.13;5039101;28;20499;-71
2022/04/20 01:22:49;;;;;;;3.63;2.05;;;;;;;9.56;82.63;101206.28;5030268;28;20029;-71
2022/04/20 01:25:34;;;;;;;2.60;1.42;;;;;;;9.51;83.18;101211.09;5036714;28;20040;-71
2022/04/20 01:28:10;;;;;;;6.15;1.83;;;;;;;9.52;83.37;101209.97;5032098;28;20036;-70
2022/04/20 01:30:44;;;;;;;1.67;1.20;;;;;;;9.55;83.14;101202.03;5021967;28;20025;-70
2022/04/20 01:33:18;;;;;;;4.13;1.90;;;;;;;9.60;82.69;101204.47;5043568;28;20033;-70
2022/04/20 01:35:47;;;;;;;1.98;1.60;;;;;;;9.62;82.82;101201.47;5032698;28;20386;-70
2022/04/20 01:38:13;;;;;;;3.85;1.60;;;;;;;9.62;82.21;101202.25;5028776;28;20026;-71
2022/04/20 01:40:39;;;;;;;2.30;1.00;;;;;;;9.61;82.50;101207.97;5032875;28;20037;-71
2022/04/20 01:43:04;;;;;;;2.58;1.58;;;;;;;9.52;82.77;101213.47;5028951;28;20025;-71
2022/04/20 01:45:31;;;;;;;2.15;1.40;;;;;;;9.51;82.90;101203.81;5029740;28;20021;-71
2022/04/20 01:48:14;;;;;;;1.40;0.80;;;;;;;9.42;83.20;101197.75;5029253;28;20041;-71
2022/04/20 01:53:59;;;;;;;3.05;1.42;;;;;;;9.32;83.93;101194.69;5047139;28;20087;-71
2022/04/20 01:56:53;;;;;;;8.35;1.88;;;;;;;9.34;83.76;101195.16;5037516;28;20567;-70
2022/04/20 01:59:37;;;;;;;1.33;0.88;;;;;;;9.34;83.40;101187.88;4998436;28;20044;-70
2022/04/20 02:05:08;;;;;;;6.13;2.03;;;;;;;9.24;83.48;101188.28;5047197;28;20067;-71
2022/04/20 02:07:35;;;;;;;2.20;1.65;;;;;;;9.20;84.02;101179.31;5031840;28;20033;-70
2022/04/20 02:10:02;;;;;;;1.75;1.60;;;;;;;9.24;83.74;101185.59;5047729;28;20520;-71
2022/04/20 02:12:28;;;;;;;3.33;1.85;;;;;;;9.20;83.63;101186.59;5028231;28;20638;-70
2022/04/20 02:15:11;;;;;;;2.75;1.23;;;;;;;9.10;84.83;101180.53;5035406;28;20029;-70
2022/04/20 02:18:06;;;;;;;3.47;1.55;;;;;;;9.12;84.76;101182.13;5045940;28;20048;-71
2022/04/20 02:20:46;;;;;;;3.05;1.23;;;;;;;9.14;85.03;101179.88;5024664;28;20563;-70
2022/04/20 02:23:12;;;;;;;3.15;1.35;;;;;;;9.14;85.02;101183.34;5030775;28;20040;-70
2022/04/20 02:25:37;;;;;;;3.83;1.77;;;;;;;9.08;85.44;101182.75;5049375;28;20489;-70
2022/04/20 02:28:03;;;;;;;2.00;1.52;;;;;;;9.08;85.39;101181.97;5030842;28;20129;-71
2022/04/20 02:30:28;;;;;;;3.03;1.52;;;;;;;9.06;85.88;101185.00;5032177;28;20021;-70
2022/04/20 02:32:54;;;;;;;3.95;1.40;;;;;;;9.03;85.68;101196.41;5025919;28;20045;-71
2022/04/20 02:35:20;;;;;;;3.33;1.92;;;;;;;9.02;86.13;101194.81;5031389;28;20400;-70
2022/04/20 02:37:46;;;;;;;3.03;1.50;;;;;;;9.04;86.45;101189.13;5048747;28;20493;-70
2022/04/20 02:40:12;;;;;;;6.45;2.22;;;;;;;9.04;86.02;101191.81;5030285;28;20041;-71
2022/04/20 02:42:37;;;;;;;3.78;1.17;;;;;;;8.99;86.44;101189.34;5023299;28;20030;-71
2022/04/20 02:45:03;;;;;;;2.95;2.05;;;;;;;8.93;86.61;101191.44;5048912;28;20485;-71
2022/04/20 02:47:28;;;;;;;3.70;1.15;;;;;;;9.01;86.42;101195.97;5048386;28;20033;-71
2022/04/20 02:49:53;;;;;;;1.50;1.13;;;;;;;8.92;86.95;101197.91;5041749;28;20031;-70
2022/04/20 02:52:22;;;;;;;3.20;1.70;;;;;;;8.93;87.05;101196.81;5028681;28;20025;-71
2022/04/20 02:54:47;;;;;;;1.02;0.77;;;;;;;8.86;87.11;101201.94;5043597;28;20494;-71
2022/04/20 02:57:14;;;;;;;3.15;2.00;;;;;;;8.89;87.48;101206.66;5032896;28;20125;-71
2022/04/20 02:59:39;;;;;;;1.15;1.13;;;;;;;8.94;87.16;101200.28;5030311;28;20135;-70
2022/04/20 03:02:05;;;;;;;2.53;1.08;;;;;;;8.96;86.81;101200.75;5046057;28;20102;-71
2022/04/20 03:04:30;;;;;;;1.52;1.33;;;;;;;8.94;86.95;101200.28;5030246;28;20032;-70
2022/04/20 03:06:56;;;;;;;2.42;1.40;;;;;;;8.91;86.58;101196.34;5046842;28;20080;-71
2022/04/20 03:09:32;;;;;;;1.95;1.67;;;;;;;8.89;86.49;101195.91;5030703;28;20041;-71
2022/04/20 03:12:00;;;;;;;1.27;0.93;;;;;;;8.82;87.03;101194.88;5051790;28;20033;-71
2022/04/20 03:14:26;;;;;;;3.60;1.75;;;;;;;8.82;86.58;101189.50;5023950;28;20035;-70
2022/04/20 03:16:56;;;;;;;3.67;1.30;;;;;;;8.78;86.92;101194.75;5035124;28;20029;-71
2022/04/20 03:19:22;;;;;;;2.17;1.50;;;;;;;8.70;86.83;101179.50;5044345;28;20087;-71
2022/04/20 03:21:47;;;;;;;1.92;1.40;;;;;;;8.69;87.01;101180.59;5034308;28;20072;-71
2022/04/20 03:24:13;;;;;;;4.55;1.88;;;;;;;8.72;87.13;101184.53;5037985;28;20025;-70
2022/04/20 03:27:10;;;;;;;3.20;1.42;;;;;;;8.72;86.90;101182.63;5000545;28;20107;-70
2022/04/20 03:29:41;;;;;;;7.00;1.65;;;;;;;8.64;86.79;101178.13;5028066;28;20565;-71
2022/04/20 03:32:15;;;;;;;1.67;1.23;;;;;;;8.58;86.93;101182.09;5031593;28;20028;-71
2022/04/20 03:34:41;;;;;;;1.20;1.10;;;;;;;8.55;87.12;101176.63;5012647;28;20128;-70
2022/04/20 03:37:09;;;;;;;2.95;1.83;;;;;;;8.50;87.93;101174.91;5051963;28;20071;-71
2022/04/20 03:39:38;;;;;;;;;;;;;;;8.35;88.51;101174.69;5036027;28;20103;-71
2022/04/20 03:42:05;;;;;;;1.55;1.33;;;;;;;8.40;88.44;101177.97;5032401;28;19912;-71
2022/04/20 03:44:31;;;;;;;2.10;1.48;;;;;;;8.38;89.20;101172.16;5050240;28;20036;-71
2022/04/20 03:46:56;;;;;;;0.93;0.93;;;;;;;8.39;88.66;101171.03;5050728;28;20052;-71
2022/04/20 03:49:22;;;;;;;11.15;2.33;;;;;;;8.36;89.24;101182.44;5050273;28;20028;-70
2022/04/20 03:51:48;;;;;;;1.50;1.20;;;;;;;8.40;88.96;101175.28;5032316;28;20375;-71
2022/04/20 03:54:16;;;;;;;1.30;1.20;;;;;;;8.41;88.81;101182.25;5014644;28;20021;-71
2022/04/20 03:59:27;;;;;;;1.23;1.13;;;;;;;8.42;88.78;101191.09;5033455;28;20030;-71
2022/04/20 04:01:53;;;;;;;3.42;1.10;;;;;;;8.31;89.25;101181.81;5050685;28;20068;-71
2022/04/20 04:04:20;;;;;;;4.03;1.85;;;;;;;8.37;89.46;101192.06;5032513;28;20552;-71
2022/04/20 04:06:47;;;;;;;2.75;1.08;;;;;;;8.42;88.28;101199.91;5033762;28;20033;-70
2022/04/20 04:09:15;;;;;;;1.60;1.42;;;;;;;8.29;89.32;101187.53;5034438;28;20128;-71
2022/04/20 04:11:42;;;;;;;2.72;1.10;;;;;;;8.26;89.71;101193.56;5035461;28;20116;-70
2022/04/20 04:14:07;;;;;;;1.05;0.90;;;;;;;8.34;89.94;101194.59;5030222;28;20124;-70
2022/04/20 04:16:36;;;;;;;4.38;1.27;;;;;;;8.25;89.88;101197.34;5049541;28;20065;-70
2022/04/20 04:19:08;;;;;;;1.70;1.45;;;;;;;8.30;89.87;101199.06;5032844;28;20028;-71
2022/04/20 04:21:38;;;;;;;;;;;;;;;8.38;89.78;101196.28;5029757;28;20021;-71
2022/04/20 04:24:06;;;;;;;0.53;0.53;;;;;;;8.42;89.61;101202.59;5015689;28;20353;-71
2022/04/20 04:26:35;;;;;;;1.95;1.00;;;;;;;8.43;89.21;101204.16;5036784;28;20638;-71
2022/04/20 04:29:02;;;;;;;1.83;1.25;;;;;;;8.37;89.38;101194.75;5046790;28;20123;-71
2022/04/20 04:31:28;;;;;;;1.02;0.90;;;;;;;8.32;89.92;101194.94;5046059;28;20047;-71
2022/04/20 04:33:54;;;;;;;2.08;1.02;;;;;;;8.41;89.37;101194.88;5043608;28;20461;-72
2022/04/20 04:36:20;;;;;;;5.13;0.90;;;;;;;8.54;88.47;101197.28;5042496;28;20063;-71
2022/04/20 04:38:57;;;;;;;1.65;1.00;;;;;;;8.52;88.97;101196.03;5050547;28;20036;-71
2022/04/20 04:41:26;;;;;;;2.50;0.80;;;;;;;8.57;88.78;101204.72;5033273;28;20029;-71
2022/04/20 04:43:52;;;;;;;1.40;0.75;;;;;;;8.47;89.67;101198.94;5044031;28;20119;-71
2022/04/20 04:49:21;;;;;;;2.88;1.05;;;;;;;8.53;90.13;101203.78;5031697;28;20469;-71
2022/04/20 04:51:47;;;;;;;0.95;0.70;;;;;;;8.96;87.38;101193.47;5030908;28;20049;-71
2022/04/20 04:54:16;;;;;;;0.75;0.63;;;;;;;8.98;86.84;101198.53;5043488;28;20063;-71
2022/04/20 04:56:42;;;;;;;4.15;1.45;;;;;;;8.87;87.56;101203.50;5029006;28;20061;-70
2022/04/20 04:59:08;;;;;;;1.10;1.00;;;;;;;8.88;87.54;101205.06;5054132;28;20021;-70
2022/04/20 05:01:33;;;;;;;2.05;1.08;;;;;;;8.84;88.11;101206.84;5022346;28;20476;-71
2022/04/20 05:04:06;;;;;;;0.98;0.68;;;;;;;9.02;87.88;101197.50;5019250;28;20028;-71
2022/04/20 05:06:32;;;;;;;1.70;1.38;;;;;;;9.12;86.85;101198.22;5032231;28;20040;-67
2022/04/20 05:09:27;;;;;;;1.27;1.17;;;;;;;9.04;87.85;101202.56;5034587;28;20115;-70
2022/04/20 05:11:54;;;;;;;7.78;1.25;;;;;;;9.09;87.80;101186.25;5030643;28;20029;-70
2022/04/20 05:14:20;;;;;;;2.55;0.90;;;;;;;9.09;88.06;101195.09;5030202;28;20044;-70
2022/04/20 05:16:49;;;;;;;1.13;0.98;;;;;;;9.15;87.32;101200.25;5033833;28;20033;-70
2022/04/20 05:19:16;;;;;;;2.28;0.93;;;;;;;9.16;87.41;101191.06;5014155;28;20087;-70
2022/04/20 05:21:43;;;;;;;1.30;0.77;;;;;;;9.18;86.92;101186.94;5019795;28;20045;-70
2022/04/20 05:24:09;;;;;;;1.20;1.10;;;;;;;9.26;86.78;101191.44;5020658;28;20520;-70
2022/04/20 05:26:36;;;;;;;1.13;0.98;;;;;;;9.36;86.22;101193.69;5021103;28;20863;-70
2022/04/20 05:29:02;;;;;;;0.52;0.43;;;;;;;9.52;84.90;101197.31;5038395;28;20033;-70
2022/04/20 05:31:35;;;;;;;1.20;0.67;;;;;;;9.66;84.54;101200.47;5033856;28;20035;-70
2022/04/20 05:34:03;;;;;;;1.08;0.98;;;;;;;9.68;83.62;101219.75;5042117;28;20029;-70
2022/04/20 05:41:39;;;;;;;1.30;0.60;;;;;;;9.54;84.61;101221.19;5045728;28;20489;-71
2022/04/20 05:42:06;;;;;;;1.33;0.73;;;;;;;9.70;82.30;101227.47;5027540;28;19912;-70
2022/04/20 05:44:32;;;;;;;1.30;1.20;;;;;;;9.81;82.20;101231.31;4995881;28;20459;-70
2022/04/20 05:46:57;;;;;;;0.50;0.47;;;;;;;10.23;80.07;101213.84;5042112;28;20037;-70
2022/04/20 05:49:24;;;;;;;0.70;0.68;;;;;;;10.48;78.79;101222.66;5040472;28;20021;-70
2022/04/20 05:51:50;;;;;;;2.53;1.25;;;;;;;10.56;77.49;101230.63;5034612;28;20027;-71
2022/04/20 05:54:15;;;;;;;1.58;0.70;;;;;;;10.76;77.30;101226.97;5020232;28;20106;-70
2022/04/20 05:56:42;;;;;;;1.85;1.10;;;;;;;10.79;76.34;101222.81;5019562;28;20033;-70
2022/04/20 05:59:08;;;;;;;0.77;0.75;;;;;;;10.78;76.33;101232.78;5036269;28;20024;-70
2022/04/20 06:01:38;;;;;;;3.08;1.17;;;;;;;10.89;76.13;101227.72;5022719;28;20127;-71
2022/04/20 06:04:30;;;;;;;0.77;0.77;;;;;;;11.14;74.11;101223.00;5033111;28;20198;-70
2022/04/20 06:07:01;;;;;;;0.88;0.55;;;;;;;11.42;72.76;101215.69;5037570;28;20045;-70
2022/04/20 06:09:32;;;;;;;1.73;1.15;;;;;;;11.56;71.96;101229.53;5029420;28;20030;-71
2022/04/20 06:12:20;;;;;;;0.50;0.45;;;;;;;11.60;70.58;101230.41;5035318;28;20055;-70
2022/04/20 06:15:06;;;;;;;1.48;0.93;;;;;;;11.63;70.15;101229.72;5032589;28;20061;-70
2022/04/20 06:17:57;;;;;;;0.52;0.52;;;;;;;11.42;70.43;101223.78;5021670;28;20129;-71
2022/04/20 06:20:23;;;;;;;1.40;0.85;;;;;;;11.40;71.54;101226.03;5020173;28;20596;-71
2022/04/20 06:23:14;;;;;;;0.95;0.70;;;;;;;11.36;72.73;101230.56;5041127;28;20430;-71
2022/04/20 06:26:06;;;;;;;;;;;;;;;11.44;72.96;101224.97;5027029;28;20033;-71
2022/04/20 06:28:51;;;;;;;1.15;0.70;;;;;;;11.65;72.23;101222.06;5034023;28;19921;-70
2022/04/20 06:31:39;;;;;;;1.23;0.73;;;;;;;11.91;70.52;101225.03;5011107;28;20501;-70
2022/04/20 06:34:20;;;;;;;0.90;0.77;;;;;;;12.03;68.81;101224.94;5036726;28;20036;-70
2022/04/20 06:37:14;;;;;;;1.17;0.90;;;;;;;12.09;68.79;101223.56;5034772;28;20037;-70
2022/04/20 06:40:00;;;;;;;0.40;0.40;;;;;;;12.31;66.87;101224.81;4991406;28;20056;-70
2022/04/20 06:42:52;;;;;;;0.60;0.60;;;;;;;12.28;67.10;101220.91;5016335;28;20498;-70
2022/04/20 06:45:41;;;;;;;9.90;0.80;;;;;;;12.58;66.73;101219.25;5015167;28;20040;-70
2022/04/20 06:48:32;;;;;;;1.75;0.73;;;;;;;12.88;64.04;101221.41;5036283;28;20471;-70
2022/04/20 06:51:11;;;;;;;1.67;0.60;;;;;;;12.85;64.06;101214.81;5011457;28;20025;-71
2022/04/20 06:59:38;;;;;;;0.65;0.60;;;;;;;13.19;60.52;101230.16;5042938;28;20090;-71
2022/04/20 07:02:22;;;;;;;0.68;0.43;;;;;;;13.19;61.29;101230.16;5036046;28;20047;-70
2022/04/20 07:05:09;;;;;;;0.60;0.60;;;;;;;13.58;58.25;101223.56;5038363;28;20042;-70
2022/04/20 07:07:55;;;;;;;0.60;0.60;;;;;;;13.76;57.68;101226.56;5006252;28;20052;-71
2022/04/20 07:10:42;;;;;;;1.08;0.80;;;;;;;13.77;57.36;101228.09;5025081;28;20033;-71
2022/04/20 07:13:12;;;;;;;2.92;0.93;;;;;;;13.72;58.31;101228.44;5032627;28;20028;-70
2022/04/20 07:15:37;;;;;;;0.75;0.65;;;;;;;13.94;58.70;101233.03;5024837;28;20067;-71
2022/04/20 07:18:03;;;;;;;0.95;0.50;;;;;;;14.11;58.34;101227.09;5030013;28;20131;-71
2022/04/20 07:20:47;;;;;;;1.10;0.82;;;;;;;14.30;56.28;101237.88;5035738;28;20075;-71
2022/04/20 07:23:30;;;;;;;0.73;0.45;;;;;;;14.43;55.85;101231.09;5032488;28;20172;-71
2022/04/20 07:26:00;;;;;;;0.70;0.50;;;;;;;14.52;56.01;101225.41;5030363;28;20414;-71
2022/04/20 07:28:55;;;;;;;0.50;0.50;;;;;;;14.57;55.96;101227.00;4955459;28;20051;-71
2022/04/20 07:31:35;;;;;;;1.25;0.60;;;;;;;14.93;55.04;101234.44;5027750;28;20394;-71
2022/04/20 07:34:33;;;;;;;0.45;0.30;;;;;;;15.02;53.87;101233.00;5027578;28;20474;-71
2022/04/20 07:37:13;;;;;;;1.20;0.50;;;;;;;15.06;55.17;101238.50;5039556;28;20043;-71
2022/04/20 07:40:14;;;;;;;1.27;0.77;;;;;;;15.19;54.18;101239.78;5008636;28;20560;-70
2022/04/20 07:43:03;;;;;;;1.00;0.77;;;;;;;15.25;54.31;101230.94;5043753;28;20588;-71
2022/04/20 07:46:01;;;;;;;1.02;0.50;;;;;;;15.55;53.48;101240.97;5027059;28;20532;-71
2022/04/20 07:48:33;;;;;;;0.60;0.52;;;;;;;15.95;51.43;101239.00;5033163;28;20029;-70
2022/04/20 07:51:22;;;;;;;0.47;0.40;;;;;;;15.81;50.83;101252.47;5038461;28;20041;-71
2022/04/20 07:54:10;;;;;;;0.38;0.38;;;;;;;15.62;51.63;101241.81;5016098;28;20115;-71
2022/04/20 07:57:15;;;;;;;0.32;0.32;;;;;;;15.97;51.32;101239.41;4963079;28;20134;-70
2022/04/20 08:00:05;;;;;;;0.50;0.50;;;;;;;16.17;51.31;101246.16;4941190;28;20035;-70
2022/04/20 08:03:18;;;;;;;2.30;0.57;;;;;;;16.28;50.81;101244.28;5015522;28;20094;-71
2022/04/20 08:05:53;;;;;;;0.98;0.55;;;;;;;16.52;48.10;101244.84;5036244;28;20025;-70
2022/04/20 08:08:22;;;;;;;2.55;0.50;;;;;;;16.65;47.20;101251.50;5036388;28;20481;-71
2022/04/20 08:10:48;;;;;;;0.43;0.43;;;;;;;16.81;46.98;101244.63;5032546;28;20025;-71
2022/04/20 08:16:02;;;;;;;0.60;0.30;;;;;;;16.84;46.96;101237.63;5024818;28;20401;-71
2022/04/20 08:18:35;;;;;;;0.38;0.25;;;;;;;16.82;46.12;101223.63;5026341;28;20132;-71
2022/04/20 08:21:29;;;;;;;0.77;0.40;;;;;;;16.59;47.32;101226.63;5047498;28;20033;-71
2022/04/20 08:23:55;;;;;;;0.35;0.30;;;;;;;16.93;47.92;101225.22;5051492;28;20115;-71
2022/04/20 08:26:20;;;;;;;1.17;0.40;;;;;;;17.28;48.34;101231.94;5035208;28;20064;-71
2022/04/20 08:28:46;;;;;;;0.40;0.40;;;;;;;17.32;47.61;101236.25;5037075;28;20052;-71
2022/04/20 08:31:13;;;;;;;0.55;0.20;;;;;;;17.52;47.22;101229.28;5020716;28;20021;-71
2022/04/20 08:33:39;;;;;;;0.40;0.30;;;;;;;17.50;47.52;101237.06;5028477;28;20478;-71
2022/04/20 08:36:04;;;;;;;1.80;0.40;;;;;;;17.70;47.12;101229.28;5032752;28;20038;-71
2022/04/20 08:38:30;;;;;;;0.40;0.20;;;;;;;17.62;47.38;101233.19;5031522;28;20028;-71
2022/04/20 08:40:59;;;;;;;0.60;0.30;;;;;;;17.88;46.96;101233.59;5031920;28;20568;-71
2022/04/20 08:43:25;;;;;;;0.30;0.20;;;;;;;17.94;46.35;101234.75;5025981;28;20565;-71
2022/04/20 08:45:52;;;;;;;0.55;0.30;;;;;;;17.85;46.08;101230.84;5033737;28;20078;-71
2022/04/20 08:48:18;;;;;;;1.15;0.47;;;;;;;18.04;45.84;101235.91;5036705;28;20142;-71
2022/04/20 08:50:44;;;;;;;1.70;0.50;;;;;;;18.09;46.13;101240.97;5029011;28;20765;-71
2022/04/20 08:53:10;;;;;;;1.00;0.50;;;;;;;18.16;45.99;101237.44;5033296;28;20453;-71
2022/04/20 08:55:36;;;;;;;0.30;0.30;;;;;;;18.11;45.19;101237.84;5031541;28;20446;-71
2022/04/20 08:58:04;;;;;;;0.63;0.35;;;;;;;18.01;45.52;101237.50;5033432;28;20029;-71
2022/04/20 09:00:30;;;;;;;0.65;0.30;;;;;;;18.18;45.79;101227.72;5039969;28;20057;-71
2022/04/20 09:02:57;;;;;;;0.85;0.30;;;;;;;18.31;46.61;101222.66;5036061;28;20462;-71
2022/04/20 09:05:24;;;;;;;0.93;0.38;;;;;;;18.48;45.73;101222.63;5035305;28;20722;-71
2022/04/20 09:07:50;;;;;;;0.85;0.50;;;;;;;18.68;44.30;101231.13;5037567;28;20029;-71
2022/04/20 09:10:19;;;;;;;0.38;0.30;;;;;;;18.56;43.42;101221.41;5037543;28;20401;-71
2022/04/20 09:12:46;;;;;;;0.10;0.10;;;;;;;18.48;43.37;101214.44;5029994;28;20490;-71
2022/04/20 09:15:27;;;;;;;0.20;0.20;;;;;;;18.67;44.54;101222.19;5034139;28;20037;-71
2022/04/20 09:17:52;;;;;;;0.23;0.23;;;;;;;18.71;43.14;101217.50;5045042;28;20510;-71
2022/04/20 09:20:18;;;;;;;0.68;0.38;;;;;;;18.92;43.98;101227.53;5037440;28;20028;-71
2022/04/20 09:23:05;;;;;;;0.68;0.43;;;;;;;19.02;41.85;101234.91;5036463;28;20035;-71
2022/04/20 09:25:46;;;;;;;1.55;0.30;;;;;;;19.17;41.58;101217.25;5011808;28;20039;-71
2022/04/20 09:28:11;;;;;;;0.10;0.10;;;;;;;19.21;41.92;101220.75;5047293;28;20048;-71
2022/04/20 09:30:40;;;;;;;0.80;0.22;;;;;;;19.37;40.88;101209.38;5029870;28;20028;-71
2022/04/20 09:35:54;;;;;;;0.40;0.20;;;;;;;19.47;42.35;101216.72;5034856;28;20418;-71
2022/04/20 09:38:24;;;;;;;0.32;0.32;;;;;;;19.39;41.30;101220.69;5037352;28;20029;-71
2022/04/20 09:41:10;;;;;;;0.25;0.20;;;;;;;19.36;42.53;101210.53;5056119;28;20029;-71
2022/04/20 09:43:38;;;;;;;0.20;0.20;;;;;;;19.63;42.13;101211.50;5049753;28;20033;-70
2022/04/20 09:49:08;;;;;;;0.82;0.38;;;;;;;19.63;41.87;101206.81;5035886;28;20061;-71
2022/04/20 09:51:41;;;;;;;0.52;0.30;;;;;;;19.72;40.91;101209.13;5036226;28;20405;-71
2022/04/20 09:54:36;;;;;;;0.68;0.28;;;;;;;19.67;40.54;101191.19;5036697;28;20380;-71
2022/04/20 09:57:13;;;;;;;0.20;0.20;;;;;;;19.72;41.73;101195.44;5025102;28;20457;-71
2022/04/20 09:59:59;;;;;;;0.50;0.40;;;;;;;19.71;39.63;101200.13;5035648;28;20026;-71
2022/04/20 10:02:25;;;;;;;0.43;0.28;;;;;;;19.58;40.04;101190.88;5044338;28;20032;-70
2022/04/20 10:04:52;;;;;;;1.13;0.40;;;;;;;19.39;40.23;101185.94;5029177;28;20452;-72
2022/04/20 10:07:18;;;;;;;0.47;0.25;;;;;;;19.24;40.72;101187.16;5030114;28;20037;-71
2022/04/20 10:09:43;;;;;;;0.82;0.38;;;;;;;19.33;42.60;101182.09;5023676;28;20048;-71
2022/04/20 10:12:12;;;;;;;0.20;0.20;;;;;;;19.45;41.71;101187.03;5038354;28;20037;-71
2022/04/20 10:17:26;;;;;;;0.45;0.20;;;;;;;19.86;40.53;101184.38;5046825;28;20134;-71
2022/04/20 10:19:53;;;;;;;0.28;0.17;;;;;;;20.03;41.31;101177.19;5031205;28;20485;-71
2022/04/20 10:22:21;;;;;;;1.10;0.50;;;;;;;20.24;42.33;101177.00;5041418;28;20017;-71
2022/04/20 10:24:50;;;;;;;0.60;0.38;;;;;;;20.15;39.27;101166.50;5044787;28;20421;-71
2022/04/20 10:27:32;;;;;;;3.03;0.40;;;;;;;20.26;41.09;101174.63;5042081;28;20629;-71
2022/04/20 10:30:01;;;;;;;0.32;0.30;;;;;;;20.54;39.51;101177.81;5039561;28;20040;-71
2022/04/20 10:32:31;;;;;;;0.20;0.13;;;;;;;20.64;39.33;101176.91;5046158;28;20032;-71
2022/04/20 10:35:05;;;;;;;0.40;0.20;;;;;;;20.64;39.27;101170.66;5043997;28;20668;-71
2022/04/20 10:38:10;;;;;;;0.80;0.57;;;;;;;21.06;39.85;101169.38;5028968;28;20029;-71
2022/04/20 10:41:18;;;;;;;0.60;0.20;;;;;;;21.18;39.57;101164.06;5045831;28;20113;-71
2022/04/20 10:43:45;;;;;;;0.30;0.30;;;;;;;21.12;39.59;101173.94;5047008;28;20030;-71
2022/04/20 10:46:16;;;;;;;0.50;0.30;;;;;;;21.20;40.35;101175.41;5044254;28;20132;-71
2022/04/20 10:48:42;;;;;;;0.30;0.30;;;;;;;20.73;40.22;101168.19;5047834;28;20078;-70
2022/04/20 10:51:16;;;;;;;0.40;0.30;;;;;;;20.68;41.89;101158.50;5047803;28;20467;-71
2022/04/20 10:53:48;;;;;;;0.80;0.40;;;;;;;20.65;42.46;101162.03;5047703;28;20043;-71
2022/04/20 10:56:14;;;;;;;0.85;0.40;;;;;;;20.90;41.88;101158.19;5030018;28;20442;-71
2022/04/20 10:59:04;;;;;;;0.68;0.20;;;;;;;21.02;42.40;101158.44;5047693;28;20024;-71
2022/04/20 11:01:30;;;;;;;0.95;0.40;;;;;;;21.45;42.34;101158.56;5041916;28;20465;-71
2022/04/20 11:03:59;;;;;;;0.30;0.28;;;;;;;21.51;40.91;101167.88;5044503;28;20095;-71
2022/04/20 11:06:29;;;;;;;0.73;0.32;;;;;;;21.52;40.72;101164.69;5044375;28;20083;-71
2022/04/20 11:09:06;;;;;;;1.65;0.20;;;;;;;21.37;39.60;101154.38;5028316;28;20040;-71
2022/04/20 11:21:03;;;;;;;0.30;0.30;;;;;;;21.16;40.08;101155.50;5027833;28;20040;-71
2022/04/20 11:24:06;;;;;;;0.32;0.20;;;;;;;21.13;40.98;101147.31;5030671;28;20053;-70
2022/04/20 11:26:40;;;;;;;0.32;0.17;;;;;;;21.15;38.86;101144.94;5021556;28;20048;-71
2022/04/20 11:29:22;;;;;;;0.40;0.30;;;;;;;20.97;40.40;101161.63;5031575;28;20060;-71
2022/04/20 11:31:49;;;;;;;1.02;0.20;;;;;;;20.74;39.74;101152.53;5037596;28;20059;-71
2022/04/20 11:34:18;;;;;;;0.40;0.17;;;;;;;20.60;39.44;101148.81;5037552;28;20029;-71
2022/04/20 11:37:00;;;;;;;0.73;0.30;;;;;;;20.52;40.72;101141.09;5045859;28;20032;-71
2022/04/20 11:39:27;;;;;;;0.40;0.30;;;;;;;20.61;40.00;101155.81;5050842;28;20044;-71
2022/04/20 11:42:02;;;;;;;0.20;0.20;;;;;;;20.42;40.73;101147.50;5051604;28;20025;-71
2022/04/20 11:44:29;;;;;;;0.30;0.20;;;;;;;20.62;39.95;101137.44;5048643;28;20061;-71
2022/04/20 11:47:04;;;;;;;0.30;0.22;;;;;;;20.50;40.23;101135.25;5038223;28;20095;-71
2022/04/20 11:49:43;;;;;;;0.30;0.10;;;;;;;20.52;41.36;101135.59;5051349;28;20060;-71
2022/04/20 11:52:14;;;;;;;0.13;0.13;;;;;;;20.29;40.53;101132.78;5030379;28;20035;-71
2022/04/20 11:54:44;;;;;;;1.23;0.20;;;;;;;20.02;41.03;101120.94;5040084;28;20521;-71
2022/04/20 11:57:15;;;;;;;0.45;0.30;;;;;;;20.15;41.76;101124.72;5034311;28;20033;-71
2022/04/20 11:59:49;;;;;;;0.82;0.38;;;;;;;20.15;40.77;101121.97;5024666;28;20081;-71
2022/04/20 12:02:16;;;;;;;1.55;0.35;;;;;;;20.04;41.72;101124.81;5035662;28;20457;-71
2022/04/20 12:04:42;;;;;;;1.45;0.38;;;;;;;20.15;42.07;101116.50;5037647;28;20071;-71
2022/04/20 12:07:10;;;;;;;0.47;0.35;;;;;;;20.23;41.09;101126.19;5040305;28;20152;-71
2022/04/20 12:09:39;;;;;;;0.47;0.32;;;;;;;20.00;40.81;101131.50;5020640;28;20155;-71
2022/04/20 12:12:09;;;;;;;0.45;0.30;;;;;;;20.15;40.96;101128.19;5048606;28;20033;-71
2022/04/20 12:14:39;;;;;;;0.77;0.50;;;;;;;20.03;41.50;101128.75;5038136;28;20029;-71
2022/04/20 12:17:08;;;;;;;0.10;0.10;;;;;;;20.25;41.87;101134.78;5040525;28;20029;-71
2022/04/20 12:19:36;;;;;;;0.25;0.20;;;;;;;20.01;41.29;101127.59;5027303;28;20872;-71
2022/04/20 12:22:17;;;;;;;0.38;0.20;;;;;;;19.95;40.95;101123.75;5041454;28;20029;-71
2022/04/20 12:24:43;;;;;;;0.80;0.20;;;;;;;20.28;40.70;101118.34;5044441;28;20414;-71
2022/04/20 12:27:20;;;;;;;0.43;0.38;;;;;;;20.36;39.78;101116.28;5043772;28;20032;-71
2022/04/20 12:29:54;;;;;;;1.08;0.50;;;;;;;20.51;39.78;101102.00;5051218;28;20988;-71
2022/04/20 12:32:26;;;;;;;0.20;0.20;;;;;;;20.59;40.63;101103.47;5043385;28;20029;-71
2022/04/20 12:35:01;;;;;;;0.32;0.17;;;;;;;20.92;40.34;101092.84;5040596;28;20021;-71